sensor_id;sensor_type;location;lat;lon;timestamp;P1;durP1;ratioP1;P2;durP2;ratioP2
67156;SDS011;54086;50.126;8.710;2023-03-23T00:02:10;3.50;;;1.33;;
67156;SDS011;54086;50.126;8.710;2023-03-23T00:04:36;4.60;;;1.40;;
67156;SDS011;54086;50.126;8.710;2023-03-23T00:07:01;4.32;;;1.20;;
67156;SDS011;54086;50.126;8.710;2023-03-23T00:09:27;3.38;;;1.40;;
67156;SDS011;54086;50.126;8.710;2023-03-23T00:11:53;3.50;;;1.20;;
67156;SDS011;54086;50.126;8.710;2023-03-23T00:14:22;4.13;;;1.10;;
67156;SDS011;54086;50.126;8.710;2023-03-23T00:16:48;3.83;;;1.20;;
67156;SDS011;54086;50.126;8.710;2023-03-23T00:19:15;4.03;;;1.17;;
67156;SDS011;54086;50.126;8.710;2023-03-23T00:21:41;5.18;;;1.55;;
67156;SDS011;54086;50.126;8.710;2023-03-23T00:24:09;3.88;;;1.20;;
67156;SDS011;54086;50.126;8.710;2023-03-23T00:26:36;3.88;;;1.10;;
67156;SDS011;54086;50.126;8.710;2023-03-23T00:29:05;4.78;;;1.45;;
67156;SDS011;54086;50.126;8.710;2023-03-23T00:31:42;3.67;;;1.20;;
67156;SDS011;54086;50.126;8.710;2023-03-23T00:34:11;4.45;;;1.17;;
67156;SDS011;54086;50.126;8.710;2023-03-23T00:36:44;4.50;;;1.35;;
67156;SDS011;54086;50.126;8.710;2023-03-23T00:39:14;3.47;;;1.35;;
67156;SDS011;54086;50.126;8.710;2023-03-23T00:41:41;2.97;;;1.23;;
67156;SDS011;54086;50.126;8.710;2023-03-23T00:44:07;5.47;;;1.40;;
67156;SDS011;54086;50.126;8.710;2023-03-23T00:46:33;4.15;;;1.38;;
67156;SDS011;54086;50.126;8.710;2023-03-23T00:48:59;5.03;;;1.47;;
67156;SDS011;54086;50.126;8.710;2023-03-23T00:51:25;3.20;;;1.30;;
67156;SDS011;54086;50.126;8.710;2023-03-23T00:53:50;3.10;;;1.40;;
67156;SDS011;54086;50.126;8.710;2023-03-23T00:56:16;3.75;;;1.42;;
67156;SDS011;54086;50.126;8.710;2023-03-23T00:58:42;3.37;;;1.37;;
67156;SDS011;54086;50.126;8.710;2023-03-23T01:01:08;6.85;;;1.35;;
67156;SDS011;54086;50.126;8.710;2023-03-23T01:03:35;3.85;;;1.10;;
67156;SDS011;54086;50.126;8.710;2023-03-23T01:06:08;4.47;;;1.10;;
67156;SDS011;54086;50.126;8.710;2023-03-23T01:08:37;4.43;;;1.30;;
67156;SDS011;54086;50.126;8.710;2023-03-23T01:11:10;3.50;;;1.10;;
67156;SDS011;54086;50.126;8.710;2023-03-23T01:13:37;4.03;;;1.40;;
67156;SDS011;54086;50.126;8.710;2023-03-23T01:16:03;4.60;;;1.50;;
67156;SDS011;54086;50.126;8.710;2023-03-23T01:18:28;5.82;;;1.50;;
67156;SDS011;54086;50.126;8.710;2023-03-23T01:20:53;3.63;;;1.30;;
67156;SDS011;54086;50.126;8.710;2023-03-23T01:23:19;4.63;;;1.50;;
67156;SDS011;54086;50.126;8.710;2023-03-23T01:25:44;4.33;;;1.40;;
67156;SDS011;54086;50.126;8.710;2023-03-23T01:28:10;3.95;;;1.50;;
67156;SDS011;54086;50.126;8.710;2023-03-23T01:30:36;4.78;;;1.30;;
67156;SDS011;54086;50.126;8.710;2023-03-23T01:33:02;2.83;;;1.10;;
67156;SDS011;54086;50.126;8.710;2023-03-23T01:35:27;4.47;;;1.87;;
67156;SDS011;54086;50.126;8.710;2023-03-23T01:37:53;4.37;;;1.50;;
67156;SDS011;54086;50.126;8.710;2023-03-23T01:40:21;3.67;;;1.30;;
67156;SDS011;54086;50.126;8.710;2023-03-23T01:42:47;4.30;;;1.53;;
67156;SDS011;54086;50.126;8.710;2023-03-23T01:48:17;3.83;;;1.27;;
67156;SDS011;54086;50.126;8.710;2023-03-23T01:53:24;4.25;;;1.55;;
67156;SDS011;54086;50.126;8.710;2023-03-23T01:55:53;4.43;;;1.50;;
67156;SDS011;54086;50.126;8.710;2023-03-23T01:58:23;3.08;;;1.40;;
67156;SDS011;54086;50.126;8.710;2023-03-23T02:00:52;3.23;;;1.30;;
67156;SDS011;54086;50.126;8.710;2023-03-23T02:03:20;4.40;;;1.40;;
67156;SDS011;54086;50.126;8.710;2023-03-23T02:05:48;3.67;;;1.38;;
67156;SDS011;54086;50.126;8.710;2023-03-23T02:08:14;3.65;;;1.30;;
67156;SDS011;54086;50.126;8.710;2023-03-23T02:10:43;4.22;;;1.20;;
67156;SDS011;54086;50.126;8.710;2023-03-23T02:13:09;4.50;;;1.60;;
67156;SDS011;54086;50.126;8.710;2023-03-23T02:15:39;3.83;;;1.25;;
67156;SDS011;54086;50.126;8.710;2023-03-23T02:21:13;4.15;;;1.33;;
67156;SDS011;54086;50.126;8.710;2023-03-23T02:26:53;3.47;;;1.30;;
67156;SDS011;54086;50.126;8.710;2023-03-23T02:32:12;3.67;;;1.15;;
67156;SDS011;54086;50.126;8.710;2023-03-23T02:34:53;3.83;;;1.40;;
67156;SDS011;54086;50.126;8.710;2023-03-23T02:37:28;3.60;;;1.23;;
67156;SDS011;54086;50.126;8.710;2023-03-23T02:40:19;4.80;;;1.80;;
67156;SDS011;54086;50.126;8.710;2023-03-23T02:42:50;4.00;;;1.13;;
67156;SDS011;54086;50.126;8.710;2023-03-23T02:45:19;3.58;;;1.30;;
67156;SDS011;54086;50.126;8.710;2023-03-23T02:47:48;4.68;;;1.20;;
67156;SDS011;54086;50.126;8.710;2023-03-23T02:50:16;4.18;;;1.30;;
67156;SDS011;54086;50.126;8.710;2023-03-23T02:52:45;3.50;;;1.33;;
67156;SDS011;54086;50.126;8.710;2023-03-23T02:55:13;3.85;;;1.30;;
67156;SDS011;54086;50.126;8.710;2023-03-23T02:57:39;5.35;;;1.48;;
67156;SDS011;54086;50.126;8.710;2023-03-23T03:00:05;4.33;;;1.30;;
67156;SDS011;54086;50.126;8.710;2023-03-23T03:02:40;3.88;;;1.50;;
67156;SDS011;54086;50.126;8.710;2023-03-23T03:05:58;3.97;;;1.25;;
67156;SDS011;54086;50.126;8.710;2023-03-23T03:13:44;3.17;;;1.08;;
67156;SDS011;54086;50.126;8.710;2023-03-23T03:16:19;4.38;;;1.10;;
67156;SDS011;54086;50.126;8.710;2023-03-23T03:18:49;3.88;;;1.13;;
67156;SDS011;54086;50.126;8.710;2023-03-23T03:21:29;3.85;;;1.25;;
67156;SDS011;54086;50.126;8.710;2023-03-23T03:23:58;3.07;;;1.30;;
67156;SDS011;54086;50.126;8.710;2023-03-23T03:26:27;4.00;;;1.50;;
67156;SDS011;54086;50.126;8.710;2023-03-23T03:28:53;3.35;;;1.42;;
67156;SDS011;54086;50.126;8.710;2023-03-23T03:31:30;3.55;;;1.40;;
67156;SDS011;54086;50.126;8.710;2023-03-23T03:33:58;4.57;;;1.30;;
67156;SDS011;54086;50.126;8.710;2023-03-23T03:36:27;4.00;;;1.20;;
67156;SDS011;54086;50.126;8.710;2023-03-23T03:38:59;3.10;;;1.20;;
67156;SDS011;54086;50.126;8.710;2023-03-23T03:41:32;4.38;;;1.50;;
67156;SDS011;54086;50.126;8.710;2023-03-23T03:43:58;4.78;;;1.77;;
67156;SDS011;54086;50.126;8.710;2023-03-23T03:46:23;4.20;;;1.50;;
67156;SDS011;54086;50.126;8.710;2023-03-23T03:48:52;4.75;;;1.60;;
67156;SDS011;54086;50.126;8.710;2023-03-23T03:51:17;4.40;;;1.67;;
67156;SDS011;54086;50.126;8.710;2023-03-23T03:53:42;4.00;;;1.33;;
67156;SDS011;54086;50.126;8.710;2023-03-23T03:56:08;4.05;;;1.50;;
67156;SDS011;54086;50.126;8.710;2023-03-23T03:58:33;4.33;;;1.50;;
67156;SDS011;54086;50.126;8.710;2023-03-23T04:01:00;6.07;;;1.48;;
67156;SDS011;54086;50.126;8.710;2023-03-23T04:03:27;3.97;;;1.30;;
67156;SDS011;54086;50.126;8.710;2023-03-23T04:05:55;4.70;;;1.50;;
67156;SDS011;54086;50.126;8.710;2023-03-23T04:08:24;4.73;;;1.50;;
67156;SDS011;54086;50.126;8.710;2023-03-23T04:10:51;5.53;;;1.83;;
67156;SDS011;54086;50.126;8.710;2023-03-23T04:13:18;4.53;;;1.70;;
67156;SDS011;54086;50.126;8.710;2023-03-23T04:15:44;4.38;;;1.70;;
67156;SDS011;54086;50.126;8.710;2023-03-23T04:18:10;4.10;;;1.53;;
67156;SDS011;54086;50.126;8.710;2023-03-23T04:20:36;4.78;;;1.55;;
67156;SDS011;54086;50.126;8.710;2023-03-23T04:23:02;6.25;;;1.63;;
67156;SDS011;54086;50.126;8.710;2023-03-23T04:25:27;4.10;;;1.50;;
67156;SDS011;54086;50.126;8.710;2023-03-23T04:27:53;4.13;;;1.53;;
67156;SDS011;54086;50.126;8.710;2023-03-23T04:30:20;5.38;;;1.95;;
67156;SDS011;54086;50.126;8.710;2023-03-23T04:32:47;4.73;;;1.87;;
67156;SDS011;54086;50.126;8.710;2023-03-23T04:35:15;5.50;;;1.88;;
67156;SDS011;54086;50.126;8.710;2023-03-23T04:37:42;3.85;;;1.75;;
67156;SDS011;54086;50.126;8.710;2023-03-23T04:40:08;4.87;;;1.63;;
67156;SDS011;54086;50.126;8.710;2023-03-23T04:42:39;4.93;;;1.75;;
67156;SDS011;54086;50.126;8.710;2023-03-23T04:45:10;5.53;;;1.95;;
67156;SDS011;54086;50.126;8.710;2023-03-23T04:47:37;7.00;;;1.83;;
67156;SDS011;54086;50.126;8.710;2023-03-23T04:50:13;7.82;;;2.10;;
67156;SDS011;54086;50.126;8.710;2023-03-23T04:52:39;5.60;;;1.80;;
67156;SDS011;54086;50.126;8.710;2023-03-23T04:55:09;4.95;;;1.77;;
67156;SDS011;54086;50.126;8.710;2023-03-23T04:57:35;5.63;;;1.83;;
67156;SDS011;54086;50.126;8.710;2023-03-23T05:00:03;5.90;;;2.20;;
67156;SDS011;54086;50.126;8.710;2023-03-23T05:02:36;5.07;;;1.80;;
67156;SDS011;54086;50.126;8.710;2023-03-23T05:05:02;5.05;;;1.60;;
67156;SDS011;54086;50.126;8.710;2023-03-23T05:07:27;6.25;;;1.98;;
67156;SDS011;54086;50.126;8.710;2023-03-23T05:09:53;6.23;;;1.90;;
67156;SDS011;54086;50.126;8.710;2023-03-23T05:12:18;4.90;;;1.47;;
67156;SDS011;54086;50.126;8.710;2023-03-23T05:14:43;6.77;;;2.03;;
67156;SDS011;54086;50.126;8.710;2023-03-23T05:17:09;6.43;;;1.95;;
67156;SDS011;54086;50.126;8.710;2023-03-23T05:19:35;4.87;;;1.60;;
67156;SDS011;54086;50.126;8.710;2023-03-23T05:22:03;5.88;;;1.73;;
67156;SDS011;54086;50.126;8.710;2023-03-23T05:24:32;5.03;;;1.80;;
67156;SDS011;54086;50.126;8.710;2023-03-23T05:27:00;5.07;;;1.83;;
67156;SDS011;54086;50.126;8.710;2023-03-23T05:29:28;5.22;;;1.70;;
67156;SDS011;54086;50.126;8.710;2023-03-23T05:31:55;6.78;;;1.83;;
67156;SDS011;54086;50.126;8.710;2023-03-23T05:34:24;6.17;;;2.20;;
67156;SDS011;54086;50.126;8.710;2023-03-23T05:36:51;6.13;;;1.95;;
67156;SDS011;54086;50.126;8.710;2023-03-23T05:39:18;5.20;;;1.90;;
67156;SDS011;54086;50.126;8.710;2023-03-23T05:41:43;6.03;;;1.80;;
67156;SDS011;54086;50.126;8.710;2023-03-23T05:44:09;5.77;;;1.87;;
67156;SDS011;54086;50.126;8.710;2023-03-23T05:46:34;4.40;;;1.67;;
67156;SDS011;54086;50.126;8.710;2023-03-23T05:49:00;4.80;;;1.70;;
67156;SDS011;54086;50.126;8.710;2023-03-23T05:51:25;5.97;;;1.77;;
67156;SDS011;54086;50.126;8.710;2023-03-23T05:53:51;5.37;;;1.60;;
67156;SDS011;54086;50.126;8.710;2023-03-23T05:56:17;5.88;;;2.10;;
67156;SDS011;54086;50.126;8.710;2023-03-23T05:58:43;4.30;;;1.80;;
67156;SDS011;54086;50.126;8.710;2023-03-23T06:01:08;4.77;;;1.50;;
67156;SDS011;54086;50.126;8.710;2023-03-23T06:03:34;6.37;;;2.20;;
67156;SDS011;54086;50.126;8.710;2023-03-23T06:06:02;5.90;;;1.60;;
67156;SDS011;54086;50.126;8.710;2023-03-23T06:08:28;5.28;;;1.67;;
67156;SDS011;54086;50.126;8.710;2023-03-23T06:10:54;6.25;;;2.25;;
67156;SDS011;54086;50.126;8.710;2023-03-23T06:13:20;5.43;;;1.80;;
67156;SDS011;54086;50.126;8.710;2023-03-23T06:15:46;5.30;;;1.80;;
67156;SDS011;54086;50.126;8.710;2023-03-23T06:18:12;5.70;;;1.98;;
67156;SDS011;54086;50.126;8.710;2023-03-23T06:20:39;5.28;;;1.85;;
67156;SDS011;54086;50.126;8.710;2023-03-23T06:23:05;5.97;;;2.00;;
67156;SDS011;54086;50.126;8.710;2023-03-23T06:25:31;4.37;;;1.70;;
67156;SDS011;54086;50.126;8.710;2023-03-23T06:27:58;5.57;;;1.95;;
67156;SDS011;54086;50.126;8.710;2023-03-23T06:30:24;7.38;;;2.00;;
67156;SDS011;54086;50.126;8.710;2023-03-23T06:32:50;4.47;;;1.70;;
67156;SDS011;54086;50.126;8.710;2023-03-23T06:35:16;5.13;;;1.90;;
67156;SDS011;54086;50.126;8.710;2023-03-23T06:37:41;6.53;;;2.10;;
67156;SDS011;54086;50.126;8.710;2023-03-23T06:40:07;5.83;;;2.50;;
67156;SDS011;54086;50.126;8.710;2023-03-23T06:42:35;6.10;;;2.15;;
67156;SDS011;54086;50.126;8.710;2023-03-23T06:45:00;6.25;;;2.20;;
67156;SDS011;54086;50.126;8.710;2023-03-23T06:47:28;4.90;;;1.90;;
67156;SDS011;54086;50.126;8.710;2023-03-23T06:49:59;5.45;;;1.77;;
67156;SDS011;54086;50.126;8.710;2023-03-23T06:52:24;7.97;;;2.72;;
67156;SDS011;54086;50.126;8.710;2023-03-23T06:54:51;6.43;;;2.10;;
67156;SDS011;54086;50.126;8.710;2023-03-23T06:57:17;5.30;;;2.08;;
67156;SDS011;54086;50.126;8.710;2023-03-23T06:59:43;6.53;;;2.30;;
67156;SDS011;54086;50.126;8.710;2023-03-23T07:02:10;4.90;;;2.05;;
67156;SDS011;54086;50.126;8.710;2023-03-23T07:04:37;6.20;;;2.13;;
67156;SDS011;54086;50.126;8.710;2023-03-23T07:07:03;6.03;;;2.25;;
67156;SDS011;54086;50.126;8.710;2023-03-23T07:09:30;5.40;;;2.13;;
67156;SDS011;54086;50.126;8.710;2023-03-23T07:11:56;5.97;;;1.93;;
67156;SDS011;54086;50.126;8.710;2023-03-23T07:14:21;5.68;;;1.83;;
67156;SDS011;54086;50.126;8.710;2023-03-23T07:16:47;5.33;;;1.77;;
67156;SDS011;54086;50.126;8.710;2023-03-23T07:19:13;5.43;;;2.63;;
67156;SDS011;54086;50.126;8.710;2023-03-23T07:21:38;5.97;;;2.20;;
67156;SDS011;54086;50.126;8.710;2023-03-23T07:24:04;4.87;;;1.60;;
67156;SDS011;54086;50.126;8.710;2023-03-23T07:26:29;5.97;;;2.15;;
67156;SDS011;54086;50.126;8.710;2023-03-23T07:28:55;7.00;;;1.93;;
67156;SDS011;54086;50.126;8.710;2023-03-23T07:31:20;5.80;;;2.03;;
67156;SDS011;54086;50.126;8.710;2023-03-23T07:33:45;7.23;;;2.33;;
67156;SDS011;54086;50.126;8.710;2023-03-23T07:36:11;6.00;;;2.83;;
67156;SDS011;54086;50.126;8.710;2023-03-23T07:38:37;5.90;;;2.27;;
67156;SDS011;54086;50.126;8.710;2023-03-23T07:41:03;6.10;;;2.45;;
67156;SDS011;54086;50.126;8.710;2023-03-23T07:43:29;5.93;;;2.17;;
67156;SDS011;54086;50.126;8.710;2023-03-23T07:45:55;6.00;;;2.23;;
67156;SDS011;54086;50.126;8.710;2023-03-23T07:48:21;5.03;;;2.10;;
67156;SDS011;54086;50.126;8.710;2023-03-23T07:50:46;4.57;;;2.03;;
67156;SDS011;54086;50.126;8.710;2023-03-23T07:53:12;5.35;;;1.83;;
67156;SDS011;54086;50.126;8.710;2023-03-23T07:55:38;5.47;;;2.03;;
67156;SDS011;54086;50.126;8.710;2023-03-23T07:58:03;4.67;;;1.90;;
67156;SDS011;54086;50.126;8.710;2023-03-23T08:00:28;5.60;;;2.13;;
67156;SDS011;54086;50.126;8.710;2023-03-23T08:02:55;8.47;;;2.50;;
67156;SDS011;54086;50.126;8.710;2023-03-23T08:05:25;6.20;;;2.28;;
67156;SDS011;54086;50.126;8.710;2023-03-23T08:07:52;5.75;;;1.60;;
67156;SDS011;54086;50.126;8.710;2023-03-23T08:10:19;6.53;;;2.00;;
67156;SDS011;54086;50.126;8.710;2023-03-23T08:12:49;6.03;;;2.00;;
67156;SDS011;54086;50.126;8.710;2023-03-23T08:15:16;5.28;;;1.80;;
67156;SDS011;54086;50.126;8.710;2023-03-23T08:17:42;6.73;;;1.90;;
67156;SDS011;54086;50.126;8.710;2023-03-23T08:20:09;4.78;;;1.90;;
67156;SDS011;54086;50.126;8.710;2023-03-23T08:22:41;5.18;;;1.83;;
67156;SDS011;54086;50.126;8.710;2023-03-23T08:25:13;5.50;;;1.70;;
67156;SDS011;54086;50.126;8.710;2023-03-23T08:27:39;5.72;;;2.10;;
67156;SDS011;54086;50.126;8.710;2023-03-23T08:30:08;7.03;;;1.87;;
67156;SDS011;54086;50.126;8.710;2023-03-23T08:32:36;5.32;;;1.90;;
67156;SDS011;54086;50.126;8.710;2023-03-23T08:35:02;5.18;;;1.77;;
67156;SDS011;54086;50.126;8.710;2023-03-23T08:37:28;5.22;;;1.70;;
67156;SDS011;54086;50.126;8.710;2023-03-23T08:39:55;5.13;;;1.95;;
67156;SDS011;54086;50.126;8.710;2023-03-23T08:42:22;4.93;;;1.97;;
67156;SDS011;54086;50.126;8.710;2023-03-23T08:44:49;6.15;;;1.85;;
67156;SDS011;54086;50.126;8.710;2023-03-23T08:47:15;4.85;;;2.00;;
67156;SDS011;54086;50.126;8.710;2023-03-23T08:49:41;4.50;;;1.70;;
67156;SDS011;54086;50.126;8.710;2023-03-23T08:52:07;6.80;;;2.00;;
67156;SDS011;54086;50.126;8.710;2023-03-23T08:54:34;4.97;;;2.08;;
67156;SDS011;54086;50.126;8.710;2023-03-23T08:56:59;6.37;;;2.13;;
67156;SDS011;54086;50.126;8.710;2023-03-23T08:59:25;6.82;;;2.17;;
67156;SDS011;54086;50.126;8.710;2023-03-23T09:01:52;5.65;;;2.33;;
67156;SDS011;54086;50.126;8.710;2023-03-23T09:04:17;5.33;;;2.00;;
67156;SDS011;54086;50.126;8.710;2023-03-23T09:06:43;5.20;;;2.40;;
67156;SDS011;54086;50.126;8.710;2023-03-23T09:09:09;7.28;;;2.20;;
67156;SDS011;54086;50.126;8.710;2023-03-23T09:11:35;7.60;;;2.17;;
67156;SDS011;54086;50.126;8.710;2023-03-23T09:14:04;5.43;;;2.15;;
67156;SDS011;54086;50.126;8.710;2023-03-23T09:16:33;5.55;;;2.00;;
67156;SDS011;54086;50.126;8.710;2023-03-23T09:18:59;6.10;;;1.92;;
67156;SDS011;54086;50.126;8.710;2023-03-23T09:21:26;5.18;;;2.05;;
67156;SDS011;54086;50.126;8.710;2023-03-23T09:23:52;6.93;;;2.00;;
67156;SDS011;54086;50.126;8.710;2023-03-23T09:26:18;5.10;;;2.03;;
67156;SDS011;54086;50.126;8.710;2023-03-23T09:28:44;7.07;;;2.00;;
67156;SDS011;54086;50.126;8.710;2023-03-23T09:31:10;7.07;;;2.40;;
67156;SDS011;54086;50.126;8.710;2023-03-23T09:33:37;7.40;;;1.87;;
67156;SDS011;54086;50.126;8.710;2023-03-23T09:36:03;5.70;;;1.90;;
67156;SDS011;54086;50.126;8.710;2023-03-23T09:38:29;5.68;;;1.88;;
67156;SDS011;54086;50.126;8.710;2023-03-23T09:44:30;6.18;;;2.10;;
67156;SDS011;54086;50.126;8.710;2023-03-23T09:47:01;6.53;;;2.27;;
67156;SDS011;54086;50.126;8.710;2023-03-23T09:49:40;5.25;;;1.80;;
67156;SDS011;54086;50.126;8.710;2023-03-23T09:52:13;5.00;;;2.00;;
67156;SDS011;54086;50.126;8.710;2023-03-23T09:54:41;5.28;;;1.70;;
67156;SDS011;54086;50.126;8.710;2023-03-23T09:57:16;4.80;;;1.67;;
67156;SDS011;54086;50.126;8.710;2023-03-23T09:59:54;4.23;;;1.70;;
67156;SDS011;54086;50.126;8.710;2023-03-23T10:02:36;5.07;;;1.70;;
67156;SDS011;54086;50.126;8.710;2023-03-23T10:08:13;6.13;;;1.85;;
67156;SDS011;54086;50.126;8.710;2023-03-23T10:11:23;5.95;;;2.00;;
67156;SDS011;54086;50.126;8.710;2023-03-23T10:16:01;5.35;;;1.73;;
67156;SDS011;54086;50.126;8.710;2023-03-23T10:18:40;5.57;;;2.17;;
67156;SDS011;54086;50.126;8.710;2023-03-23T10:21:16;5.78;;;2.25;;
67156;SDS011;54086;50.126;8.710;2023-03-23T10:24:03;5.60;;;2.25;;
67156;SDS011;54086;50.126;8.710;2023-03-23T10:29:20;4.78;;;2.05;;
67156;SDS011;54086;50.126;8.710;2023-03-23T10:34:44;4.15;;;1.55;;
67156;SDS011;54086;50.126;8.710;2023-03-23T10:37:18;6.20;;;2.13;;
67156;SDS011;54086;50.126;8.710;2023-03-23T10:42:24;4.75;;;1.80;;
67156;SDS011;54086;50.126;8.710;2023-03-23T10:44:55;6.43;;;2.00;;
67156;SDS011;54086;50.126;8.710;2023-03-23T10:47:22;5.60;;;1.83;;
67156;SDS011;54086;50.126;8.710;2023-03-23T10:52:35;4.97;;;1.77;;
67156;SDS011;54086;50.126;8.710;2023-03-23T10:57:39;5.07;;;1.90;;
67156;SDS011;54086;50.126;8.710;2023-03-23T11:00:19;6.50;;;2.28;;
67156;SDS011;54086;50.126;8.710;2023-03-23T11:05:42;4.47;;;1.50;;
67156;SDS011;54086;50.126;8.710;2023-03-23T11:08:19;5.82;;;1.70;;
67156;SDS011;54086;50.126;8.710;2023-03-23T11:10:54;5.60;;;2.00;;
67156;SDS011;54086;50.126;8.710;2023-03-23T11:13:26;4.95;;;1.85;;
67156;SDS011;54086;50.126;8.710;2023-03-23T11:15:54;6.55;;;2.03;;
67156;SDS011;54086;50.126;8.710;2023-03-23T11:18:20;5.27;;;2.17;;
67156;SDS011;54086;50.126;8.710;2023-03-23T11:20:48;6.45;;;1.95;;
67156;SDS011;54086;50.126;8.710;2023-03-23T11:23:19;5.20;;;1.80;;
67156;SDS011;54086;50.126;8.710;2023-03-23T11:25:54;6.27;;;2.00;;
67156;SDS011;54086;50.126;8.710;2023-03-23T11:28:30;5.85;;;2.22;;
67156;SDS011;54086;50.126;8.710;2023-03-23T11:30:59;6.60;;;2.22;;
67156;SDS011;54086;50.126;8.710;2023-03-23T11:33:34;5.20;;;1.98;;
67156;SDS011;54086;50.126;8.710;2023-03-23T11:36:03;4.50;;;1.50;;
67156;SDS011;54086;50.126;8.710;2023-03-23T11:38:31;5.53;;;2.10;;
67156;SDS011;54086;50.126;8.710;2023-03-23T11:40:58;4.65;;;1.70;;
67156;SDS011;54086;50.126;8.710;2023-03-23T11:43:24;4.47;;;1.77;;
67156;SDS011;54086;50.126;8.710;2023-03-23T11:52:11;4.37;;;1.60;;
67156;SDS011;54086;50.126;8.710;2023-03-23T11:54:46;4.43;;;1.60;;
67156;SDS011;54086;50.126;8.710;2023-03-23T11:57:16;4.20;;;1.83;;
67156;SDS011;54086;50.126;8.710;2023-03-23T11:59:41;5.80;;;2.05;;
67156;SDS011;54086;50.126;8.710;2023-03-23T12:04:48;5.05;;;1.60;;
67156;SDS011;54086;50.126;8.710;2023-03-23T12:13:00;4.97;;;2.00;;
67156;SDS011;54086;50.126;8.710;2023-03-23T12:18:23;3.72;;;1.60;;
67156;SDS011;54086;50.126;8.710;2023-03-23T12:26:30;4.47;;;1.70;;
67156;SDS011;54086;50.126;8.710;2023-03-23T12:45:21;3.78;;;1.40;;
67156;SDS011;54086;50.126;8.710;2023-03-23T12:48:23;3.90;;;1.40;;
67156;SDS011;54086;50.126;8.710;2023-03-23T12:56:24;3.90;;;1.50;;
67156;SDS011;54086;50.126;8.710;2023-03-23T12:59:09;3.88;;;1.55;;
67156;SDS011;54086;50.126;8.710;2023-03-23T13:01:43;4.47;;;1.50;;
67156;SDS011;54086;50.126;8.710;2023-03-23T13:04:18;4.20;;;1.30;;
67156;SDS011;54086;50.126;8.710;2023-03-23T13:06:48;4.03;;;1.55;;
67156;SDS011;54086;50.126;8.710;2023-03-23T13:12:07;3.90;;;1.30;;
67156;SDS011;54086;50.126;8.710;2023-03-23T13:20:22;3.97;;;1.60;;
67156;SDS011;54086;50.126;8.710;2023-03-23T13:26:08;3.90;;;1.50;;
67156;SDS011;54086;50.126;8.710;2023-03-23T13:33:58;7.30;;;2.33;;
67156;SDS011;54086;50.126;8.710;2023-03-23T13:36:34;4.13;;;1.60;;
67156;SDS011;54086;50.126;8.710;2023-03-23T13:39:05;4.10;;;1.60;;
67156;SDS011;54086;50.126;8.710;2023-03-23T13:41:49;4.40;;;1.60;;
67156;SDS011;54086;50.126;8.710;2023-03-23T13:44:54;4.38;;;1.73;;
67156;SDS011;54086;50.126;8.710;2023-03-23T13:47:40;4.97;;;1.80;;
67156;SDS011;54086;50.126;8.710;2023-03-23T14:02:52;4.40;;;1.63;;
67156;SDS011;54086;50.126;8.710;2023-03-23T14:10:33;5.13;;;1.60;;
67156;SDS011;54086;50.126;8.710;2023-03-23T14:13:02;4.70;;;1.50;;
67156;SDS011;54086;50.126;8.710;2023-03-23T14:15:40;3.65;;;1.40;;
67156;SDS011;54086;50.126;8.710;2023-03-23T14:18:12;4.20;;;1.30;;
67156;SDS011;54086;50.126;8.710;2023-03-23T14:20:40;6.28;;;1.50;;
67156;SDS011;54086;50.126;8.710;2023-03-23T14:23:12;5.38;;;1.48;;
67156;SDS011;54086;50.126;8.710;2023-03-23T14:25:41;4.30;;;1.55;;
67156;SDS011;54086;50.126;8.710;2023-03-23T14:28:16;5.87;;;1.40;;
67156;SDS011;54086;50.126;8.710;2023-03-23T14:30:46;3.97;;;1.33;;
67156;SDS011;54086;50.126;8.710;2023-03-23T14:33:16;6.35;;;1.80;;
67156;SDS011;54086;50.126;8.710;2023-03-23T14:35:44;3.50;;;1.30;;
67156;SDS011;54086;50.126;8.710;2023-03-23T14:38:17;4.22;;;1.42;;
67156;SDS011;54086;50.126;8.710;2023-03-23T14:40:45;4.15;;;1.50;;
67156;SDS011;54086;50.126;8.710;2023-03-23T14:43:13;5.95;;;1.63;;
67156;SDS011;54086;50.126;8.710;2023-03-23T14:45:41;4.18;;;1.70;;
67156;SDS011;54086;50.126;8.710;2023-03-23T14:48:07;4.30;;;1.50;;
67156;SDS011;54086;50.126;8.710;2023-03-23T14:56:00;4.73;;;1.50;;
67156;SDS011;54086;50.126;8.710;2023-03-23T14:58:28;4.07;;;1.50;;
67156;SDS011;54086;50.126;8.710;2023-03-23T15:00:56;5.18;;;1.83;;
67156;SDS011;54086;50.126;8.710;2023-03-23T15:03:25;3.88;;;1.35;;
67156;SDS011;54086;50.126;8.710;2023-03-23T15:05:54;3.67;;;1.50;;
67156;SDS011;54086;50.126;8.710;2023-03-23T15:08:29;6.03;;;1.50;;
67156;SDS011;54086;50.126;8.710;2023-03-23T15:11:03;4.90;;;1.77;;
67156;SDS011;54086;50.126;8.710;2023-03-23T15:13:29;4.10;;;1.63;;
67156;SDS011;54086;50.126;8.710;2023-03-23T15:16:02;5.68;;;1.58;;
67156;SDS011;54086;50.126;8.710;2023-03-23T15:18:30;5.00;;;1.90;;
67156;SDS011;54086;50.126;8.710;2023-03-23T15:21:06;4.72;;;1.50;;
67156;SDS011;54086;50.126;8.710;2023-03-23T15:23:33;4.65;;;1.60;;
67156;SDS011;54086;50.126;8.710;2023-03-23T15:26:05;4.03;;;1.33;;
67156;SDS011;54086;50.126;8.710;2023-03-23T15:28:33;4.25;;;1.50;;
67156;SDS011;54086;50.126;8.710;2023-03-23T15:31:05;5.00;;;1.40;;
67156;SDS011;54086;50.126;8.710;2023-03-23T15:33:38;3.78;;;1.30;;
67156;SDS011;54086;50.126;8.710;2023-03-23T15:36:06;4.80;;;1.33;;
67156;SDS011;54086;50.126;8.710;2023-03-23T15:38:34;4.97;;;1.50;;
67156;SDS011;54086;50.126;8.710;2023-03-23T15:41:05;4.20;;;1.40;;
67156;SDS011;54086;50.126;8.710;2023-03-23T15:43:54;5.10;;;1.87;;
67156;SDS011;54086;50.126;8.710;2023-03-23T15:46:24;3.08;;;1.13;;
67156;SDS011;54086;50.126;8.710;2023-03-23T15:49:04;4.15;;;1.55;;
67156;SDS011;54086;50.126;8.710;2023-03-23T15:51:34;6.38;;;1.50;;
67156;SDS011;54086;50.126;8.710;2023-03-23T15:54:00;3.30;;;1.20;;
67156;SDS011;54086;50.126;8.710;2023-03-23T15:56:26;4.72;;;1.50;;
67156;SDS011;54086;50.126;8.710;2023-03-23T15:58:52;3.93;;;1.40;;
67156;SDS011;54086;50.126;8.710;2023-03-23T16:03:52;4.88;;;1.50;;
67156;SDS011;54086;50.126;8.710;2023-03-23T16:06:20;3.72;;;1.33;;
67156;SDS011;54086;50.126;8.710;2023-03-23T16:08:49;4.20;;;1.20;;
67156;SDS011;54086;50.126;8.710;2023-03-23T16:11:16;5.72;;;1.60;;
67156;SDS011;54086;50.126;8.710;2023-03-23T16:13:42;4.80;;;1.60;;
67156;SDS011;54086;50.126;8.710;2023-03-23T16:16:20;3.57;;;1.30;;
67156;SDS011;54086;50.126;8.710;2023-03-23T16:18:47;5.55;;;1.40;;
67156;SDS011;54086;50.126;8.710;2023-03-23T16:21:13;3.67;;;1.55;;
67156;SDS011;54086;50.126;8.710;2023-03-23T16:23:38;5.07;;;1.60;;
67156;SDS011;54086;50.126;8.710;2023-03-23T16:26:05;4.40;;;1.70;;
67156;SDS011;54086;50.126;8.710;2023-03-23T16:28:30;3.90;;;1.43;;
67156;SDS011;54086;50.126;8.710;2023-03-23T16:30:56;6.43;;;1.85;;
67156;SDS011;54086;50.126;8.710;2023-03-23T16:33:21;4.67;;;1.63;;
67156;SDS011;54086;50.126;8.710;2023-03-23T16:35:47;4.70;;;1.80;;
67156;SDS011;54086;50.126;8.710;2023-03-23T16:38:13;4.78;;;1.77;;
67156;SDS011;54086;50.126;8.710;2023-03-23T16:40:40;7.40;;;2.13;;
67156;SDS011;54086;50.126;8.710;2023-03-23T16:43:07;5.93;;;1.60;;
67156;SDS011;54086;50.126;8.710;2023-03-23T16:45:32;5.03;;;1.90;;
67156;SDS011;54086;50.126;8.710;2023-03-23T16:47:57;5.35;;;1.90;;
67156;SDS011;54086;50.126;8.710;2023-03-23T16:50:25;4.68;;;1.73;;
67156;SDS011;54086;50.126;8.710;2023-03-23T16:52:52;12.87;;;7.50;;
67156;SDS011;54086;50.126;8.710;2023-03-23T16:55:18;9.60;;;4.60;;
67156;SDS011;54086;50.126;8.710;2023-03-23T16:57:43;8.17;;;4.97;;
67156;SDS011;54086;50.126;8.710;2023-03-23T17:00:10;5.95;;;2.72;;
67156;SDS011;54086;50.126;8.710;2023-03-23T17:02:40;5.37;;;2.03;;
67156;SDS011;54086;50.126;8.710;2023-03-23T17:05:09;6.60;;;2.42;;
67156;SDS011;54086;50.126;8.710;2023-03-23T17:07:35;5.90;;;2.00;;
67156;SDS011;54086;50.126;8.710;2023-03-23T17:10:05;5.63;;;1.75;;
67156;SDS011;54086;50.126;8.710;2023-03-23T17:12:31;6.63;;;3.38;;